createdAt,value
2018-09-07T00:00:54.473Z,16.90
2018-09-07T00:03:24.122Z,16.80
2018-09-07T00:05:53.331Z,16.80
2018-09-07T00:08:23.272Z,16.70
2018-09-07T00:10:52.454Z,16.60
2018-09-07T00:13:21.717Z,16.70
2018-09-07T00:15:50.914Z,16.60
2018-09-07T00:18:20.201Z,16.70
2018-09-07T00:20:49.458Z,16.80
2018-09-07T00:23:18.777Z,16.80
2018-09-07T00:25:47.997Z,16.80
2018-09-07T00:28:17.209Z,16.90
2018-09-07T00:30:46.553Z,16.90
2018-09-07T00:33:15.745Z,16.90
2018-09-07T00:35:45.046Z,16.80
2018-09-07T00:38:14.429Z,16.80
2018-09-07T00:40:43.642Z,16.70
2018-09-07T00:43:12.878Z,16.60
2018-09-07T00:45:42.170Z,16.60
2018-09-07T00:48:11.290Z,16.50
2018-09-07T00:50:40.455Z,16.60
2018-09-07T00:53:09.613Z,16.50
2018-09-07T00:55:38.750Z,16.40
2018-09-07T00:58:07.890Z,16.40
2018-09-07T01:00:37.042Z,16.30
2018-09-07T01:03:06.220Z,16.30
2018-09-07T01:05:35.357Z,16.30
2018-09-07T01:08:04.502Z,16.40
2018-09-07T01:10:33.690Z,16.30
2018-09-07T01:13:02.809Z,16.20
2018-09-07T01:15:31.962Z,16.20
2018-09-07T01:18:01.125Z,16.30
2018-09-07T01:20:30.230Z,16.30
2018-09-07T01:22:59.410Z,16.30
2018-09-07T01:25:28.533Z,16.30
2018-09-07T01:27:57.671Z,16.30
2018-09-07T01:30:26.821Z,16.40
2018-09-07T01:32:56.926Z,16.40
2018-09-07T01:35:27.139Z,16.50
2018-09-07T01:38:01.538Z,16.60
2018-09-07T01:40:30.693Z,16.80
2018-09-07T01:42:59.854Z,16.80
2018-09-07T01:45:29.022Z,16.80
2018-09-07T01:47:58.160Z,16.70
2018-09-07T01:50:27.278Z,16.80
2018-09-07T01:52:56.772Z,16.90
2018-09-07T01:55:25.917Z,17.00
2018-09-07T01:57:55.058Z,16.90
2018-09-07T02:00:24.291Z,16.80
2018-09-07T02:02:58.662Z,16.90
2018-09-07T02:05:27.881Z,16.90
2018-09-07T02:07:57.107Z,16.90
2018-09-07T02:10:25.833Z,16.90
2018-09-07T02:12:54.932Z,17.00
2018-09-07T02:15:24.086Z,17.10
2018-09-07T02:17:53.214Z,17.10
2018-09-07T02:20:22.881Z,17.10
2018-09-07T02:22:52.035Z,17.00
2018-09-07T02:25:21.169Z,17.00
2018-09-07T02:27:50.265Z,17.00
2018-09-07T02:30:19.387Z,16.80
2018-09-07T02:32:48.477Z,16.70
2018-09-07T02:35:17.576Z,16.90
2018-09-07T02:37:46.698Z,16.90
2018-09-07T02:40:15.790Z,16.90
2018-09-07T02:42:44.886Z,17.00
2018-09-07T02:45:13.994Z,16.90
2018-09-07T02:47:43.087Z,16.90
2018-09-07T02:50:12.239Z,16.90
2018-09-07T02:52:41.604Z,16.90
2018-09-07T02:55:10.732Z,16.80
2018-09-07T02:57:39.866Z,16.70
2018-09-07T03:00:09.081Z,16.80
2018-09-07T03:02:38.286Z,16.70
2018-09-07T03:05:07.681Z,16.70
2018-09-07T03:07:37.069Z,16.80
2018-09-07T03:10:06.759Z,16.70
2018-09-07T03:12:35.514Z,16.70
2018-09-07T03:15:04.622Z,16.70
2018-09-07T03:17:33.740Z,16.60
2018-09-07T03:20:02.827Z,16.40
2018-09-07T03:22:31.940Z,16.30
2018-09-07T03:25:01.192Z,16.30
2018-09-07T03:27:29.857Z,16.20
2018-09-07T03:29:59.082Z,16.20
2018-09-07T03:32:28.206Z,16.20
2018-09-07T03:34:57.633Z,16.30
2018-09-07T03:37:26.725Z,16.40
2018-09-07T03:39:55.837Z,16.30
2018-09-07T03:42:26.691Z,16.10
2018-09-07T03:44:57.203Z,16.00
2018-09-07T03:47:26.315Z,16.00
2018-09-07T03:49:55.457Z,16.10
2018-09-07T03:52:24.645Z,16.00
2018-09-07T03:54:53.902Z,16.00
2018-09-07T03:57:23.226Z,16.00
2018-09-07T03:59:52.371Z,16.00
2018-09-07T04:02:21.497Z,16.10
2018-09-07T04:04:50.769Z,16.10
2018-09-07T04:07:19.990Z,16.10
2018-09-07T04:09:49.732Z,16.00
2018-09-07T04:12:18.964Z,15.80
2018-09-07T04:14:48.177Z,15.70
2018-09-07T04:17:17.434Z,15.50
2018-09-07T04:19:46.707Z,15.40
2018-09-07T04:22:15.931Z,15.30
2018-09-07T04:24:45.114Z,15.30
2018-09-07T04:27:14.326Z,15.30
2018-09-07T04:29:43.543Z,15.30
2018-09-07T04:32:12.820Z,15.40
2018-09-07T04:34:42.525Z,15.40
2018-09-07T04:37:11.885Z,15.50
2018-09-07T04:39:41.206Z,15.60
2018-09-07T04:42:10.409Z,15.60
2018-09-07T04:44:39.548Z,15.70
2018-09-07T04:47:08.973Z,15.70
2018-09-07T04:49:38.057Z,15.60
2018-09-07T04:52:07.218Z,15.50
2018-09-07T04:54:36.401Z,15.50
2018-09-07T04:57:05.721Z,15.50
2018-09-07T04:59:34.885Z,15.60
2018-09-07T05:02:04.102Z,15.80
2018-09-07T05:04:34.302Z,15.90
2018-09-07T05:07:03.416Z,15.80
2018-09-07T05:09:32.163Z,15.80
2018-09-07T05:12:01.291Z,16.00
2018-09-07T05:14:30.417Z,16.00
2018-09-07T05:16:59.562Z,16.00
2018-09-07T05:19:28.697Z,16.10
2018-09-07T05:21:57.818Z,16.20
2018-09-07T05:24:26.903Z,16.20
2018-09-07T05:26:56.021Z,16.40
2018-09-07T05:29:25.155Z,16.40
2018-09-07T05:31:54.397Z,16.40
2018-09-07T05:34:23.526Z,16.70
2018-09-07T05:36:52.627Z,16.80
2018-09-07T05:39:21.788Z,16.90
2018-09-07T05:41:50.891Z,17.00
2018-09-07T05:44:19.994Z,17.00
2018-09-07T05:46:49.122Z,17.00
2018-09-07T05:49:18.240Z,16.90
2018-09-07T05:51:47.350Z,17.10
2018-09-07T05:54:16.458Z,17.40
2018-09-07T05:56:45.566Z,17.60
2018-09-07T05:59:14.714Z,17.90
2018-09-07T06:01:43.825Z,18.10
2018-09-07T06:04:12.927Z,18.10
2018-09-07T06:06:42.079Z,18.10
2018-09-07T06:09:11.607Z,18.30
2018-09-07T06:11:40.956Z,18.50
2018-09-07T06:14:10.186Z,18.60
2018-09-07T06:16:38.928Z,18.40
2018-09-07T06:19:07.967Z,18.10
2018-09-07T06:21:37.133Z,17.70
2018-09-07T06:24:06.235Z,17.40
2018-09-07T06:26:35.348Z,17.50
2018-09-07T06:29:04.533Z,17.20
2018-09-07T06:31:33.753Z,17.10
2018-09-07T06:34:02.873Z,17.10
2018-09-07T06:36:32.023Z,17.00
2018-09-07T06:39:01.248Z,16.90
2018-09-07T06:41:30.215Z,16.90
2018-09-07T06:43:59.322Z,16.90
2018-09-07T06:46:28.427Z,16.70
2018-09-07T06:48:57.553Z,16.70
2018-09-07T06:51:26.711Z,16.60
2018-09-07T06:53:55.863Z,16.70
2018-09-07T06:56:24.965Z,16.90
2018-09-07T06:58:54.138Z,16.80
2018-09-07T07:01:23.254Z,16.50
2018-09-07T07:03:52.394Z,16.40
2018-09-07T07:06:21.563Z,16.40
2018-09-07T07:08:50.657Z,16.40
2018-09-07T07:11:19.950Z,16.50
2018-09-07T07:13:49.259Z,16.60
2018-09-07T07:16:18.104Z,16.80
2018-09-07T07:18:47.197Z,17.00
2018-09-07T07:21:16.336Z,17.20
2018-09-07T07:23:45.557Z,17.40
2018-09-07T07:26:14.705Z,17.70
2018-09-07T07:28:43.789Z,17.80
2018-09-07T07:31:12.929Z,17.90
2018-09-07T07:33:42.070Z,18.10
2018-09-07T07:36:11.197Z,18.30
2018-09-07T07:38:40.279Z,18.50
2018-09-07T07:41:09.514Z,18.60
2018-09-07T07:43:38.665Z,18.40
2018-09-07T07:46:07.969Z,18.40
2018-09-07T07:48:37.511Z,18.50
2018-09-07T07:51:06.711Z,18.10
2018-09-07T07:53:35.958Z,18.10
2018-09-07T07:56:05.195Z,18.10
2018-09-07T07:58:34.311Z,18.00
2018-09-07T08:01:03.434Z,17.90
2018-09-07T08:03:32.894Z,18.10
2018-09-07T08:06:02.033Z,18.20
2018-09-07T08:08:31.133Z,18.60
2018-09-07T08:11:00.306Z,18.90
2018-09-07T08:13:30.249Z,19.50
2018-09-07T08:15:59.586Z,20.00
2018-09-07T08:18:35.422Z,20.30
2018-09-07T08:21:04.530Z,20.30
2018-09-07T08:23:33.629Z,21.00
2018-09-07T08:26:02.758Z,20.80
2018-09-07T08:28:31.866Z,21.00
2018-09-07T08:31:00.946Z,20.90
2018-09-07T08:33:30.061Z,21.10
2018-09-07T08:35:59.181Z,20.50
2018-09-07T08:38:28.302Z,21.10
2018-09-07T08:40:57.453Z,20.60
2018-09-07T08:43:26.571Z,20.60
2018-09-07T08:45:55.663Z,20.50
2018-09-07T08:48:24.789Z,20.60
2018-09-07T08:50:53.909Z,21.10
2018-09-07T08:53:23.025Z,20.80
2018-09-07T08:55:52.145Z,20.80
2018-09-07T08:58:21.243Z,20.50
2018-09-07T09:00:50.457Z,21.20
2018-09-07T09:03:19.601Z,21.10
2018-09-07T09:05:48.685Z,21.50
2018-09-07T09:08:17.790Z,20.90
2018-09-07T09:10:46.917Z,21.30
2018-09-07T09:13:16.020Z,22.20
2018-09-07T09:15:45.097Z,22.60
2018-09-07T09:18:14.417Z,21.70
2018-09-07T09:20:43.626Z,21.30
2018-09-07T09:23:12.838Z,21.80
2018-09-07T09:25:41.961Z,22.20
2018-09-07T09:28:11.067Z,21.60
2018-09-07T09:30:40.204Z,21.20
2018-09-07T09:33:09.331Z,21.10
2018-09-07T09:35:38.422Z,21.30
2018-09-07T09:38:07.525Z,20.80
2018-09-07T09:40:36.687Z,20.50
2018-09-07T09:43:05.782Z,21.00
2018-09-07T09:45:34.874Z,21.00
2018-09-07T09:48:03.997Z,21.50
2018-09-07T09:50:33.107Z,22.30
2018-09-07T09:53:02.280Z,22.70
2018-09-07T09:55:31.313Z,23.40
2018-09-07T09:58:00.444Z,22.80
2018-09-07T10:00:34.870Z,23.10
2018-09-07T10:03:10.306Z,22.70
2018-09-07T10:05:39.526Z,22.80
2018-09-07T10:08:08.598Z,23.50
2018-09-07T10:10:37.719Z,22.10
2018-09-07T10:13:06.854Z,22.20
2018-09-07T10:15:35.937Z,21.40
2018-09-07T10:18:05.033Z,21.00
2018-09-07T10:20:34.209Z,20.70
2018-09-07T10:23:02.981Z,20.30
2018-09-07T10:25:32.177Z,20.20
2018-09-07T10:28:01.206Z,20.40
2018-09-07T10:30:30.409Z,20.80
2018-09-07T10:32:59.520Z,21.40
2018-09-07T10:35:28.705Z,21.80
2018-09-07T10:37:57.785Z,22.70
2018-09-07T10:40:26.926Z,23.10
2018-09-07T10:42:56.067Z,21.30
2018-09-07T10:45:25.150Z,20.80
2018-09-07T10:47:54.306Z,20.30
2018-09-07T10:50:23.410Z,20.70
2018-09-07T10:52:52.527Z,20.70
2018-09-07T10:55:21.661Z,20.20
2018-09-07T10:57:51.254Z,20.00
2018-09-07T11:00:20.469Z,20.40
2018-09-07T11:02:49.598Z,20.50
2018-09-07T11:05:18.694Z,20.70
2018-09-07T11:07:47.831Z,21.30
2018-09-07T11:10:16.954Z,21.90
2018-09-07T11:12:46.111Z,22.70
2018-09-07T11:15:15.245Z,23.10
2018-09-07T11:17:44.391Z,23.20
2018-09-07T11:20:13.686Z,23.40
2018-09-07T11:22:42.926Z,23.00
2018-09-07T11:25:12.243Z,21.90
2018-09-07T11:27:41.330Z,22.40
2018-09-07T11:30:10.434Z,23.70
2018-09-07T11:32:39.557Z,23.70
2018-09-07T11:35:08.646Z,23.00
2018-09-07T11:37:37.831Z,22.90
2018-09-07T11:40:07.029Z,22.60
2018-09-07T11:42:36.161Z,21.50
2018-09-07T11:45:05.318Z,21.30
2018-09-07T11:47:34.428Z,21.50
2018-09-07T11:50:03.526Z,22.10
2018-09-07T11:52:32.626Z,22.80
2018-09-07T11:55:01.725Z,25.40
2018-09-07T11:57:30.881Z,27.20
2018-09-07T11:59:59.998Z,28.40
2018-09-07T12:02:29.077Z,28.20
2018-09-07T12:04:58.195Z,25.90
2018-09-07T12:07:27.566Z,25.10
2018-09-07T12:09:56.824Z,24.10
2018-09-07T12:12:26.050Z,23.40
2018-09-07T12:14:55.038Z,23.00
2018-09-07T12:17:24.241Z,23.00
2018-09-07T12:19:53.326Z,23.40
2018-09-07T12:22:22.401Z,23.30
2018-09-07T12:24:51.646Z,22.80
2018-09-07T12:27:20.882Z,21.90
2018-09-07T12:29:50.075Z,21.20
2018-09-07T12:32:18.770Z,21.00
2018-09-07T12:34:48.762Z,20.70
2018-09-07T12:37:17.799Z,20.80
2018-09-07T12:39:47.194Z,21.10
2018-09-07T12:42:17.276Z,21.20
2018-09-07T12:44:46.577Z,21.40
2018-09-07T12:47:16.614Z,21.50
2018-09-07T12:49:46.377Z,21.70
2018-09-07T12:52:16.433Z,22.00
2018-09-07T12:54:45.512Z,21.40
2018-09-07T12:57:14.639Z,21.60
2018-09-07T12:59:43.722Z,21.60
2018-09-07T13:02:12.819Z,21.30
2018-09-07T13:04:41.958Z,21.40
2018-09-07T13:07:11.053Z,21.30
2018-09-07T13:09:46.906Z,21.30
2018-09-07T13:12:16.039Z,21.10
2018-09-07T13:14:45.190Z,21.10
2018-09-07T13:17:14.333Z,21.00
2018-09-07T13:19:43.438Z,20.50
2018-09-07T13:22:12.557Z,20.40
2018-09-07T13:24:41.873Z,20.30
2018-09-07T13:27:10.989Z,20.20
2018-09-07T13:29:39.689Z,20.10
2018-09-07T13:32:08.885Z,20.10
2018-09-07T13:34:38.102Z,20.10
2018-09-07T13:37:07.183Z,20.00
2018-09-07T13:39:36.325Z,20.20
2018-09-07T13:42:05.397Z,20.60
2018-09-07T13:44:34.489Z,20.60
2018-09-07T13:47:03.651Z,21.20
2018-09-07T13:49:32.835Z,22.20
2018-09-07T13:52:01.945Z,23.00
2018-09-07T13:54:31.101Z,24.00
2018-09-07T13:57:00.186Z,23.50
2018-09-07T13:59:29.274Z,24.30
2018-09-07T14:01:58.396Z,24.30
2018-09-07T14:04:27.497Z,23.40
2018-09-07T14:06:56.733Z,23.60
2018-09-07T14:09:25.867Z,25.30
2018-09-07T14:11:54.957Z,25.20
2018-09-07T14:14:24.098Z,24.80
2018-09-07T14:16:53.230Z,24.20
2018-09-07T14:19:22.329Z,24.00
2018-09-07T14:21:51.480Z,24.00
2018-09-07T14:24:20.587Z,23.10
2018-09-07T14:26:49.686Z,22.50
2018-09-07T14:29:18.819Z,22.10
2018-09-07T14:31:47.933Z,21.60
2018-09-07T14:34:17.039Z,21.60
2018-09-07T14:36:46.125Z,21.60
2018-09-07T14:39:15.270Z,21.60
2018-09-07T14:41:45.812Z,21.80
2018-09-07T14:44:14.969Z,21.90
2018-09-07T14:46:44.083Z,21.60
2018-09-07T14:49:13.256Z,22.20
2018-09-07T14:51:42.294Z,22.80
2018-09-07T14:54:11.419Z,22.80
2018-09-07T14:56:40.498Z,22.80
2018-09-07T14:59:09.661Z,23.10
2018-09-07T15:01:38.739Z,23.30
2018-09-07T15:04:07.825Z,23.70
2018-09-07T15:06:36.950Z,23.90
2018-09-07T15:09:07.654Z,23.30
2018-09-07T15:11:36.817Z,23.00
2018-09-07T15:14:05.880Z,22.50
2018-09-07T15:16:34.962Z,22.70
2018-09-07T15:19:04.058Z,22.60
2018-09-07T15:21:33.195Z,22.40
2018-09-07T15:24:02.292Z,22.70
2018-09-07T15:26:31.723Z,22.70
2018-09-07T15:29:02.217Z,22.30
2018-09-07T15:31:31.986Z,22.00
2018-09-07T15:34:01.066Z,21.90
2018-09-07T15:36:31.871Z,21.80
2018-09-07T15:39:01.418Z,22.20
2018-09-07T15:41:30.572Z,22.50
2018-09-07T15:43:59.697Z,22.50
2018-09-07T15:46:28.805Z,23.00
2018-09-07T15:48:57.880Z,22.40
2018-09-07T15:51:26.990Z,22.10
2018-09-07T15:53:56.106Z,22.60
2018-09-07T15:56:26.090Z,22.80
2018-09-07T15:58:55.903Z,22.20
2018-09-07T16:01:26.497Z,22.00
2018-09-07T16:03:55.600Z,21.80
2018-09-07T16:06:24.930Z,21.80
2018-09-07T16:08:54.177Z,21.50
2018-09-07T16:11:23.321Z,21.80
2018-09-07T16:13:52.417Z,21.70
2018-09-07T16:16:21.575Z,21.70
2018-09-07T16:18:50.659Z,21.80
2018-09-07T16:21:19.751Z,21.40
2018-09-07T16:23:48.881Z,21.30
2018-09-07T16:26:17.986Z,20.90
2018-09-07T16:28:47.061Z,21.00
2018-09-07T16:31:16.186Z,20.60
2018-09-07T16:33:45.478Z,20.40
2018-09-07T16:36:14.770Z,20.30
2018-09-07T16:38:44.062Z,20.20
2018-09-07T16:41:13.109Z,20.10
2018-09-07T16:43:44.074Z,19.90
2018-09-07T16:46:13.261Z,19.80
2018-09-07T16:48:42.807Z,19.80
2018-09-07T16:51:12.355Z,19.70
2018-09-07T16:53:41.477Z,19.70
2018-09-07T16:56:12.521Z,19.60
2018-09-07T16:58:41.622Z,19.40
2018-09-07T17:01:10.814Z,19.30
2018-09-07T17:03:39.898Z,19.10
2018-09-07T17:06:09.032Z,19.00
2018-09-07T17:08:38.209Z,18.90
2018-09-07T17:11:07.330Z,18.80
2018-09-07T17:13:36.414Z,18.70
2018-09-07T17:16:05.526Z,18.70
2018-09-07T17:18:34.681Z,18.60
2018-09-07T17:21:03.784Z,18.50
2018-09-07T17:23:33.536Z,18.40
2018-09-07T17:26:02.894Z,18.30
2018-09-07T17:28:31.974Z,18.30
2018-09-07T17:31:01.105Z,18.20
2018-09-07T17:33:31.402Z,18.10
2018-09-07T17:36:00.520Z,18.10
2018-09-07T17:38:29.642Z,18.00
2018-09-07T17:40:58.810Z,17.90
2018-09-07T17:43:28.613Z,17.80
2018-09-07T17:45:57.416Z,17.80
2018-09-07T17:48:26.547Z,17.70
2018-09-07T17:50:55.633Z,17.60
2018-09-07T17:53:24.724Z,17.40
2018-09-07T17:55:53.866Z,17.30
2018-09-07T17:58:22.981Z,17.20
2018-09-07T18:00:52.114Z,17.20
2018-09-07T18:03:21.217Z,17.00
2018-09-07T18:05:52.078Z,16.90
2018-09-07T18:08:21.197Z,16.80
2018-09-07T18:10:50.310Z,16.80
2018-09-07T18:13:19.426Z,16.70
2018-09-07T18:15:48.576Z,16.70
2018-09-07T18:18:17.614Z,16.60
2018-09-07T18:20:47.495Z,16.50
2018-09-07T18:23:17.317Z,16.50
2018-09-07T18:25:46.449Z,16.50
2018-09-07T18:28:15.530Z,16.40
2018-09-07T18:30:47.103Z,16.30
2018-09-07T18:33:16.223Z,16.30
2018-09-07T18:35:46.352Z,16.40
2018-09-07T18:38:16.153Z,16.20
2018-09-07T18:40:46.337Z,16.20
2018-09-07T18:43:19.196Z,16.30
2018-09-07T18:45:48.308Z,16.20
2018-09-07T18:48:17.422Z,16.10
2018-09-07T18:50:46.538Z,16.10
2018-09-07T18:53:16.554Z,16.10
2018-09-07T18:55:45.709Z,15.90
2018-09-07T18:58:17.113Z,15.80
2018-09-07T19:00:46.306Z,15.70
2018-09-07T19:03:15.541Z,15.70
2018-09-07T19:05:44.771Z,15.60
2018-09-07T19:08:13.894Z,15.40
2018-09-07T19:10:43.014Z,15.20
2018-09-07T19:13:12.233Z,15.00
2018-09-07T19:15:41.404Z,14.90
2018-09-07T19:18:10.521Z,15.00
2018-09-07T19:20:39.702Z,14.80
2018-09-07T19:23:08.864Z,14.70
2018-09-07T19:25:37.977Z,14.70
2018-09-07T19:28:07.111Z,14.70
2018-09-07T19:30:36.245Z,14.80
2018-09-07T19:33:05.462Z,14.80
2018-09-07T19:35:34.594Z,14.90
2018-09-07T19:38:03.766Z,15.00
2018-09-07T19:40:32.880Z,15.10
2018-09-07T19:43:01.986Z,15.20
2018-09-07T19:45:31.222Z,15.30
2018-09-07T19:48:00.397Z,15.30
2018-09-07T19:50:29.670Z,15.40
2018-09-07T19:52:58.875Z,15.30
2018-09-07T19:55:28.110Z,15.20
2018-09-07T19:57:57.370Z,15.10
2018-09-07T20:00:26.406Z,15.10
2018-09-07T20:02:55.475Z,14.80
2018-09-07T20:05:25.313Z,14.70
2018-09-07T20:07:54.530Z,14.40
2018-09-07T20:10:23.642Z,14.10
2018-09-07T20:12:52.832Z,13.90
2018-09-07T20:15:21.838Z,13.70
2018-09-07T20:17:50.941Z,13.60
2018-09-07T20:20:20.041Z,13.40
2018-09-07T20:22:49.145Z,13.30
2018-09-07T20:25:19.549Z,13.20
2018-09-07T20:27:48.673Z,13.20
2018-09-07T20:30:17.786Z,13.20
2018-09-07T20:32:46.961Z,13.00
2018-09-07T20:35:15.973Z,13.00
2018-09-07T20:37:45.127Z,13.00
2018-09-07T20:40:14.226Z,13.20
2018-09-07T20:42:43.356Z,13.20
2018-09-07T20:45:13.915Z,13.10
2018-09-07T20:47:44.842Z,13.00
2018-09-07T20:50:14.739Z,13.20
2018-09-07T20:52:44.851Z,13.20
2018-09-07T20:55:14.920Z,13.10
2018-09-07T20:57:45.813Z,13.00
2018-09-07T21:00:16.006Z,13.10
2018-09-07T21:02:46.047Z,12.90
2018-09-07T21:05:16.829Z,12.70
2018-09-07T21:07:48.347Z,12.50
2018-09-07T21:10:19.230Z,12.50
2018-09-07T21:12:48.314Z,12.50
2018-09-07T21:15:17.401Z,12.60
2018-09-07T21:17:46.510Z,12.60
2018-09-07T21:20:15.618Z,12.60
2018-09-07T21:22:44.754Z,12.60
2018-09-07T21:25:16.678Z,12.60
2018-09-07T21:27:45.773Z,12.60
2018-09-07T21:30:14.865Z,12.70
2018-09-07T21:32:43.970Z,12.80
2018-09-07T21:35:13.062Z,12.80
2018-09-07T21:37:42.209Z,12.80
2018-09-07T21:40:11.280Z,12.70
2018-09-07T21:42:40.374Z,12.70
2018-09-07T21:45:09.485Z,12.70
2018-09-07T21:47:41.641Z,12.60
2018-09-07T21:50:10.982Z,12.70
2018-09-07T21:52:40.233Z,12.60
2018-09-07T21:55:09.455Z,12.30
2018-09-07T21:57:38.666Z,12.20
2018-09-07T22:00:08.592Z,12.20
2018-09-07T22:02:37.734Z,12.30
2018-09-07T22:05:06.865Z,12.40
2018-09-07T22:07:41.281Z,12.50
2018-09-07T22:10:10.391Z,12.50
2018-09-07T22:12:39.473Z,12.60
2018-09-07T22:15:08.624Z,12.40
2018-09-07T22:17:37.710Z,12.50
2018-09-07T22:20:06.833Z,12.40
2018-09-07T22:22:35.945Z,12.20
2018-09-07T22:25:05.039Z,12.00
2018-09-07T22:27:35.025Z,11.90
2018-09-07T22:30:04.273Z,11.90
2018-09-07T22:32:33.377Z,12.00
2018-09-07T22:35:02.501Z,12.00
2018-09-07T22:37:31.604Z,11.90
2018-09-07T22:40:00.700Z,11.80
2018-09-07T22:42:29.779Z,11.80
2018-09-07T22:44:58.900Z,11.70
2018-09-07T22:47:28.229Z,11.60
2018-09-07T22:49:57.331Z,11.60
2018-09-07T22:52:26.434Z,11.50
2018-09-07T22:54:55.549Z,11.40
2018-09-07T22:57:24.338Z,11.30
2018-09-07T22:59:53.497Z,11.30
2018-09-07T23:02:22.593Z,11.30
2018-09-07T23:04:51.686Z,11.50
2018-09-07T23:07:20.786Z,11.60
2018-09-07T23:09:49.885Z,11.50
2018-09-07T23:12:18.998Z,11.50
2018-09-07T23:14:48.090Z,11.50
2018-09-07T23:17:17.203Z,11.50
2018-09-07T23:19:46.329Z,11.50
2018-09-07T23:22:15.417Z,11.40
2018-09-07T23:24:44.530Z,11.40
2018-09-07T23:27:13.653Z,11.50
2018-09-07T23:29:42.758Z,11.50
2018-09-07T23:32:11.845Z,11.40
2018-09-07T23:34:40.987Z,11.30
2018-09-07T23:37:10.087Z,11.20
2018-09-07T23:39:39.192Z,11.20
2018-09-07T23:42:08.312Z,11.20
2018-09-07T23:44:37.490Z,11.10
2018-09-07T23:47:06.633Z,11.10
2018-09-07T23:49:35.744Z,11.20
2018-09-07T23:52:04.849Z,11.30
2018-09-07T23:54:33.966Z,11.40
2018-09-07T23:57:03.076Z,11.50
2018-09-07T23:59:32.261Z,11.60
